createdAt,value
2023-04-13T00:01:14.425Z,-5.62
2023-04-13T00:03:43.625Z,-5.55
2023-04-13T00:06:12.435Z,-5.50
2023-04-13T00:08:43.502Z,-5.39
2023-04-13T00:11:13.753Z,-5.30
2023-04-13T00:13:48.096Z,-5.11
2023-04-13T00:16:17.635Z,-4.91
2023-04-13T00:18:46.509Z,-4.73
2023-04-13T00:21:17.488Z,-4.56
2023-04-13T00:23:46.343Z,-4.48
2023-04-13T00:26:15.245Z,-4.53
2023-04-13T00:28:44.248Z,-4.46
2023-04-13T00:31:13.050Z,-4.23
2023-04-13T00:33:42.173Z,-3.92
2023-04-13T00:36:11.186Z,-3.66
2023-04-13T00:38:41.424Z,-3.38
2023-04-13T00:41:14.477Z,-3.11
2023-04-13T00:43:45.525Z,-2.87
2023-04-13T00:46:16.833Z,-2.70
2023-04-13T00:48:48.667Z,-2.62
2023-04-13T00:51:18.856Z,-2.54
2023-04-13T00:53:50.195Z,-2.34
2023-04-13T00:56:19.765Z,-2.17
2023-04-13T00:58:48.684Z,-1.89
2023-04-13T01:01:19.948Z,-1.65
2023-04-13T01:03:48.993Z,-1.47
2023-04-13T01:06:29.766Z,-1.28
2023-04-13T01:09:09.216Z,-0.87
2023-04-13T01:11:49.118Z,0.41
2023-04-13T01:14:41.368Z,1.92
2023-04-13T01:20:16.389Z,4.31
2023-04-13T01:22:57.980Z,5.42
2023-04-13T01:25:42.398Z,6.39
2023-04-13T01:28:19.048Z,6.91
2023-04-13T01:30:50.373Z,7.56
2023-04-13T01:33:21.504Z,8.12
2023-04-13T01:35:51.854Z,8.53
2023-04-13T01:38:25.893Z,7.91
2023-04-13T01:40:56.900Z,8.09
2023-04-13T01:43:29.309Z,7.84
2023-04-13T01:46:14.486Z,8.55
2023-04-13T01:49:10.891Z,8.69
2023-04-13T01:52:03.686Z,7.85
2023-04-13T01:54:34.424Z,7.66
2023-04-13T01:57:04.414Z,8.16
2023-04-13T01:59:36.248Z,9.18
2023-04-13T02:02:07.599Z,8.77
2023-04-13T02:04:36.899Z,6.97
2023-04-13T02:07:05.765Z,5.41
2023-04-13T02:09:38.959Z,4.68
2023-04-13T02:12:08.202Z,4.63
2023-04-13T02:14:39.858Z,6.77
2023-04-13T02:17:08.825Z,8.34
2023-04-13T02:19:37.676Z,7.33
2023-04-13T02:22:06.506Z,5.53
2023-04-13T02:24:35.305Z,3.80
2023-04-13T02:27:04.662Z,2.57
2023-04-13T02:29:34.948Z,1.79
2023-04-13T02:32:04.232Z,1.61
2023-04-13T02:34:34.440Z,2.42
2023-04-13T02:37:03.389Z,5.26
2023-04-13T02:39:34.023Z,6.21
2023-04-13T02:42:03.835Z,5.24
2023-04-13T02:44:34.649Z,4.14
2023-04-13T02:47:03.455Z,3.41
2023-04-13T02:49:32.318Z,2.93
2023-04-13T02:52:22.186Z,4.24
2023-04-13T02:55:02.252Z,4.21
2023-04-13T02:57:38.603Z,3.67
2023-04-13T03:00:11.085Z,3.71
2023-04-13T03:02:48.721Z,5.50
2023-04-13T03:05:20.530Z,5.25
2023-04-13T03:07:49.907Z,4.19
2023-04-13T03:10:19.636Z,3.60
2023-04-13T03:12:49.669Z,3.14
2023-04-13T03:15:19.397Z,2.61
2023-04-13T03:17:48.728Z,2.25
2023-04-13T03:20:24.194Z,2.38
2023-04-13T03:22:59.378Z,3.07
2023-04-13T03:25:33.644Z,6.05
2023-04-13T03:28:04.486Z,9.14
2023-04-13T03:30:38.808Z,11.39
2023-04-13T03:33:08.109Z,13.52
2023-04-13T03:35:39.089Z,14.80
2023-04-13T03:38:15.180Z,15.01
2023-04-13T03:40:46.578Z,16.32
2023-04-13T03:43:16.794Z,17.16
2023-04-13T03:45:51.803Z,15.48
2023-04-13T03:48:21.426Z,13.99
2023-04-13T03:50:50.700Z,15.45
2023-04-13T03:53:25.618Z,15.42
2023-04-13T03:55:57.526Z,13.35
2023-04-13T03:58:27.269Z,12.04
2023-04-13T04:00:57.650Z,10.57
2023-04-13T04:03:39.036Z,9.79
2023-04-13T04:06:10.970Z,9.34
2023-04-13T04:08:44.503Z,8.71
2023-04-13T04:11:26.638Z,8.14
2023-04-13T04:13:55.602Z,7.37
2023-04-13T04:16:25.454Z,6.69
2023-04-13T04:19:03.660Z,6.45
2023-04-13T04:21:36.538Z,6.31
2023-04-13T04:24:13.068Z,6.84
2023-04-13T04:26:50.862Z,6.64
2023-04-13T04:29:23.006Z,6.68
2023-04-13T04:31:57.569Z,6.47
2023-04-13T04:34:26.630Z,7.08
2023-04-13T04:37:00.232Z,7.30
2023-04-13T04:39:35.929Z,6.63
2023-04-13T04:42:13.366Z,6.44
2023-04-13T04:44:45.218Z,6.79
2023-04-13T04:47:17.501Z,6.89
2023-04-13T04:50:04.955Z,7.10
2023-04-13T04:52:39.322Z,8.69
2023-04-13T04:55:09.205Z,9.82
2023-04-13T04:57:41.618Z,11.12
2023-04-13T05:00:16.238Z,13.78
2023-04-13T05:02:55.019Z,14.40
2023-04-13T05:05:25.700Z,12.60
2023-04-13T05:07:54.692Z,11.45
2023-04-13T05:10:28.980Z,12.89
2023-04-13T05:12:59.929Z,13.61
2023-04-13T05:15:29.005Z,12.18
2023-04-13T05:17:58.224Z,10.24
2023-04-13T05:20:30.403Z,8.79
2023-04-13T05:23:04.289Z,8.42
2023-04-13T05:25:40.014Z,7.26
2023-04-13T05:28:17.263Z,6.72
2023-04-13T05:30:47.114Z,6.70
2023-04-13T05:33:17.638Z,6.25
2023-04-13T05:35:50.274Z,6.29
2023-04-13T05:38:19.224Z,6.77
2023-04-13T05:40:48.839Z,6.62
2023-04-13T05:43:18.746Z,5.76
2023-04-13T05:45:51.530Z,5.50
2023-04-13T05:48:20.732Z,5.59
2023-04-13T05:50:50.897Z,5.75
2023-04-13T05:53:20.029Z,5.87
2023-04-13T05:55:53.457Z,5.85
2023-04-13T05:58:22.765Z,6.22
2023-04-13T06:00:59.716Z,6.41
2023-04-13T06:03:33.285Z,6.05
2023-04-13T06:06:05.345Z,5.70
2023-04-13T06:08:34.289Z,5.68
2023-04-13T06:11:03.563Z,5.70
2023-04-13T06:13:32.484Z,5.80
2023-04-13T06:16:01.665Z,6.06
2023-04-13T06:18:30.754Z,6.74
2023-04-13T06:21:00.199Z,7.00
2023-04-13T06:23:29.070Z,7.28
2023-04-13T06:26:03.689Z,6.96
2023-04-13T06:28:46.083Z,6.49
2023-04-13T06:31:16.253Z,6.15
2023-04-13T06:33:48.268Z,5.81
2023-04-13T06:36:19.794Z,5.64
2023-04-13T06:38:49.473Z,5.01
2023-04-13T06:41:18.535Z,4.66
2023-04-13T06:43:49.350Z,5.21
2023-04-13T06:46:28.322Z,5.80
2023-04-13T06:49:03.205Z,5.70
2023-04-13T06:51:34.638Z,5.57
2023-04-13T06:54:04.101Z,5.39
2023-04-13T06:56:33.590Z,5.28
2023-04-13T06:59:03.222Z,5.11
2023-04-13T07:01:35.219Z,5.13
2023-04-13T07:04:07.709Z,5.51
2023-04-13T07:06:37.137Z,5.34
2023-04-13T07:09:06.099Z,4.80
2023-04-13T07:11:35.115Z,4.44
2023-04-13T07:14:04.700Z,4.09
2023-04-13T07:16:33.715Z,4.01
2023-04-13T07:19:02.712Z,4.05
2023-04-13T07:21:33.953Z,3.97
2023-04-13T07:24:06.288Z,4.01
2023-04-13T07:26:40.141Z,3.84
2023-04-13T07:29:13.977Z,3.61
2023-04-13T07:31:48.506Z,3.59
2023-04-13T07:34:18.615Z,3.52
2023-04-13T07:36:49.680Z,3.61
2023-04-13T07:39:22.022Z,3.69
2023-04-13T07:41:53.700Z,3.69
2023-04-13T07:44:29.700Z,3.40
2023-04-13T07:46:59.432Z,3.10
2023-04-13T07:49:30.767Z,2.88
2023-04-13T07:52:00.906Z,2.61
2023-04-13T07:54:35.713Z,2.49
2023-04-13T07:57:06.780Z,2.44
2023-04-13T07:59:38.832Z,2.42
2023-04-13T08:02:08.685Z,2.42
2023-04-13T08:04:41.175Z,2.42
2023-04-13T08:07:11.189Z,2.48
2023-04-13T08:09:41.444Z,2.52
2023-04-13T08:12:11.020Z,2.87
2023-04-13T08:14:44.259Z,2.88
2023-04-13T08:17:13.765Z,3.04
2023-04-13T08:19:43.608Z,3.07
2023-04-13T08:22:16.077Z,3.24
2023-04-13T08:24:46.393Z,3.46
2023-04-13T08:27:15.404Z,3.41
2023-04-13T08:29:44.333Z,3.14
2023-04-13T08:32:13.676Z,2.87
2023-04-13T08:34:42.786Z,2.77
2023-04-13T08:37:15.909Z,2.73
2023-04-13T08:39:48.984Z,2.82
2023-04-13T08:42:21.638Z,2.90
2023-04-13T08:44:53.697Z,3.02
2023-04-13T08:47:23.416Z,3.14
2023-04-13T08:49:57.691Z,3.11
2023-04-13T08:52:48.665Z,3.09
2023-04-13T08:55:18.742Z,3.09
2023-04-13T08:57:51.792Z,3.28
2023-04-13T09:00:24.520Z,3.37
2023-04-13T09:03:05.340Z,3.46
2023-04-13T09:05:43.170Z,3.32
2023-04-13T09:08:14.267Z,3.38
2023-04-13T09:10:46.701Z,3.46
2023-04-13T09:13:15.604Z,3.52
2023-04-13T09:15:47.890Z,3.69
2023-04-13T09:18:37.101Z,3.84
2023-04-13T09:21:11.125Z,3.69
2023-04-13T09:23:40.096Z,3.61
2023-04-13T09:26:09.737Z,3.54
2023-04-13T09:28:51.422Z,3.41
2023-04-13T09:31:20.642Z,3.27
2023-04-13T09:33:53.817Z,3.10
2023-04-13T09:36:23.306Z,2.69
2023-04-13T09:38:56.733Z,2.58
2023-04-13T09:41:38.283Z,2.60
2023-04-13T09:44:25.118Z,2.61
2023-04-13T09:47:01.792Z,2.57
2023-04-13T09:49:39.382Z,2.50
2023-04-13T09:52:19.406Z,2.33
2023-04-13T09:54:57.776Z,2.22
2023-04-13T09:57:30.801Z,2.25
2023-04-13T10:00:02.090Z,2.39
2023-04-13T10:02:43.297Z,2.51
2023-04-13T10:05:12.938Z,2.49
2023-04-13T10:07:45.167Z,2.57
2023-04-13T10:10:14.403Z,2.66
2023-04-13T10:12:55.861Z,2.64
2023-04-13T10:15:44.375Z,2.62
2023-04-13T10:18:34.625Z,2.48
2023-04-13T10:21:04.583Z,2.41
2023-04-13T10:23:34.285Z,2.34
2023-04-13T10:26:04.687Z,2.22
2023-04-13T10:28:47.680Z,2.10
2023-04-13T10:31:17.494Z,2.01
2023-04-13T10:33:52.620Z,1.91
2023-04-13T10:36:22.030Z,1.81
2023-04-13T10:38:50.940Z,1.72
2023-04-13T10:41:27.380Z,1.62
2023-04-13T10:44:03.383Z,1.56
2023-04-13T10:46:34.871Z,1.43
2023-04-13T10:49:05.535Z,1.39
2023-04-13T10:51:45.227Z,1.32
2023-04-13T10:54:15.244Z,1.29
2023-04-13T10:56:45.622Z,1.23
2023-04-13T10:59:14.465Z,1.15
2023-04-13T11:01:44.707Z,1.10
2023-04-13T11:04:16.186Z,1.08
2023-04-13T11:06:47.470Z,1.00
2023-04-13T11:09:17.240Z,1.01
2023-04-13T11:11:52.940Z,0.93
2023-04-13T11:14:23.233Z,0.89
2023-04-13T11:19:26.979Z,0.86
2023-04-13T11:21:58.716Z,0.86
2023-04-13T11:24:34.709Z,0.82
2023-04-13T11:27:04.650Z,0.74
2023-04-13T11:29:33.859Z,0.71
2023-04-13T11:32:04.587Z,0.67
2023-04-13T11:34:33.699Z,0.68
2023-04-13T11:37:03.951Z,0.64
2023-04-13T11:39:36.943Z,0.60
2023-04-13T11:42:07.581Z,0.59
2023-04-13T11:44:37.907Z,0.50
2023-04-13T11:47:09.427Z,0.48
2023-04-13T11:49:41.323Z,0.42
2023-04-13T11:52:10.350Z,0.37
2023-04-13T11:54:39.426Z,0.29
2023-04-13T11:57:08.693Z,0.33
2023-04-13T11:59:39.270Z,0.27
2023-04-13T12:02:20.771Z,0.25
2023-04-13T12:04:52.316Z,0.19
2023-04-13T12:07:21.993Z,0.13
2023-04-13T12:09:56.888Z,0.12
2023-04-13T12:17:41.351Z,-0.02
2023-04-13T12:20:17.699Z,-0.02
2023-04-13T12:25:24.524Z,-0.12
2023-04-13T12:27:54.767Z,-0.10
2023-04-13T12:30:26.865Z,-0.13
2023-04-13T12:32:56.876Z,-0.15
2023-04-13T12:35:26.077Z,-0.22
2023-04-13T12:37:54.964Z,-0.31
2023-04-13T12:40:24.008Z,-0.39
2023-04-13T12:42:52.848Z,-0.43
2023-04-13T12:45:22.070Z,-0.47
2023-04-13T12:47:51.008Z,-0.51
2023-04-13T12:50:19.957Z,-0.58
2023-04-13T12:52:50.404Z,-0.60
2023-04-13T12:55:19.178Z,-0.61
2023-04-13T12:57:48.156Z,-0.59
2023-04-13T13:00:18.777Z,-0.66
2023-04-13T13:02:50.431Z,-0.66
2023-04-13T13:05:23.357Z,-0.68
2023-04-13T13:07:52.611Z,-0.75
2023-04-13T13:10:29.074Z,-0.70
2023-04-13T13:12:59.278Z,-0.73
2023-04-13T13:15:28.150Z,-0.65
2023-04-13T13:17:57.110Z,-0.65
2023-04-13T13:20:26.089Z,-0.66
2023-04-13T13:22:55.042Z,-0.66
2023-04-13T13:25:24.106Z,-0.67
2023-04-13T13:30:25.906Z,-0.67
2023-04-13T13:32:55.076Z,-0.61
2023-04-13T13:35:24.066Z,-0.61
2023-04-13T13:37:52.959Z,-0.60
2023-04-13T13:40:21.899Z,-0.60
2023-04-13T13:42:52.430Z,-0.57
2023-04-13T13:45:25.251Z,-0.59
2023-04-13T13:47:59.193Z,-0.61
2023-04-13T13:50:54.105Z,-0.58
2023-04-13T13:53:23.825Z,-0.60
2023-04-13T13:55:53.659Z,-0.65
2023-04-13T13:58:22.610Z,-0.70
2023-04-13T14:00:52.633Z,-0.75
2023-04-13T14:03:22.498Z,-0.63
2023-04-13T14:05:51.489Z,-0.68
2023-04-13T14:08:20.485Z,-0.75
2023-04-13T14:10:50.475Z,-0.70
2023-04-13T14:13:19.374Z,-0.68
2023-04-13T14:15:48.248Z,-0.71
2023-04-13T14:18:17.237Z,-0.78
2023-04-13T14:20:46.537Z,-0.79
2023-04-13T14:23:15.460Z,-0.79
2023-04-13T14:25:44.429Z,-0.77
2023-04-13T14:28:14.466Z,-0.78
2023-04-13T14:30:43.475Z,-0.83
2023-04-13T14:33:15.173Z,-0.84
2023-04-13T14:35:44.241Z,-0.84
2023-04-13T14:38:13.093Z,-0.89
2023-04-13T14:40:42.199Z,-0.80
2023-04-13T14:43:11.114Z,-0.82
2023-04-13T14:45:39.922Z,-0.78
2023-04-13T14:48:08.910Z,-0.80
2023-04-13T14:50:41.170Z,-0.81
2023-04-13T14:53:10.036Z,-0.86
2023-04-13T14:55:42.590Z,-0.86
2023-04-13T14:58:11.769Z,-0.94
2023-04-13T15:00:41.858Z,-0.89
2023-04-13T15:03:13.651Z,-0.88
2023-04-13T15:05:48.853Z,-0.91
2023-04-13T15:08:18.249Z,-0.93
2023-04-13T15:10:47.444Z,-1.08
2023-04-13T15:13:16.456Z,-1.13
2023-04-13T15:15:45.453Z,-1.15
2023-04-13T15:18:14.404Z,-1.13
2023-04-13T15:20:43.310Z,-1.08
2023-04-13T15:23:12.527Z,-1.04
2023-04-13T15:25:42.473Z,-1.06
2023-04-13T15:28:11.465Z,-1.02
2023-04-13T15:30:40.961Z,-1.03
2023-04-13T15:33:09.960Z,-1.04
2023-04-13T15:35:39.253Z,-1.05
2023-04-13T15:38:09.916Z,-1.02
2023-04-13T15:40:39.659Z,-0.99
2023-04-13T15:43:09.036Z,-1.01
2023-04-13T15:45:37.987Z,-1.05
2023-04-13T15:48:07.576Z,-1.09
2023-04-13T15:50:36.494Z,-1.03
2023-04-13T15:53:07.781Z,-1.04
2023-04-13T15:55:40.148Z,-1.09
2023-04-13T15:58:10.583Z,-1.09
2023-04-13T16:00:40.242Z,-1.12
2023-04-13T16:03:09.490Z,-1.10
2023-04-13T16:05:38.549Z,-1.11
2023-04-13T16:08:08.628Z,-1.10
2023-04-13T16:10:37.896Z,-1.13
2023-04-13T16:13:08.472Z,-1.14
